Time;durP1;ratioP1;P1;durP2;ratioP2;P2;SDS_P1;SDS_P2;PMS_P1;PMS_P2;Temp;Humidity;BMP_temperature;BMP_pressure;BME280_temperature;BME280_humidity;BME280_pressure;Samples;Min_cycle;Max_cycle;Signal;HPM_P1;HPM_P2
2024/03/02 00:00:21;;;;;;;0.30;0.30;;;8.40;84.70;;;;;;5100976;28;20036;-74
2024/03/02 00:02:49;;;;;;;1.55;0.43;;;8.30;84.60;;;;;;5138161;28;20574;-74
2024/03/02 00:05:18;;;;;;;0.15;0.15;;;8.40;84.70;;;;;;5102050;28;20039;-75
2024/03/02 00:07:48;;;;;;;0.28;0.28;;;8.40;84.70;;;;;;5119346;28;20122;-74
2024/03/02 00:10:19;;;;;;;0.52;0.35;;;8.40;84.70;;;;;;5137557;28;20039;-74
2024/03/02 00:12:47;;;;;;;0.22;0.17;;;8.40;84.70;;;;;;5118206;28;20050;-74
2024/03/02 00:15:51;;;;;;;0.20;0.20;;;8.40;84.60;;;;;;5101799;28;20038;-74
2024/03/02 00:18:20;;;;;;;0.28;0.28;;;8.40;84.60;;;;;;5105735;28;20058;-74
2024/03/02 00:20:46;;;;;;;0.30;0.30;;;8.40;84.60;;;;;;5137118;28;20364;-74
2024/03/02 00:23:16;;;;;;;0.50;0.20;;;8.40;84.50;;;;;;5136824;28;20620;-74
2024/03/02 00:25:46;;;;;;;0.10;0.10;;;8.50;84.60;;;;;;5119081;28;20035;-74
2024/03/02 00:28:33;;;;;;;0.52;0.28;;;8.40;84.50;;;;;;5119712;28;20057;-74
2024/03/02 00:31:04;;;;;;;0.20;0.20;;;8.40;84.50;;;;;;5118087;28;20077;-75
2024/03/02 00:33:36;;;;;;;0.47;0.30;;;8.40;84.50;;;;;;5117587;28;20070;-74
2024/03/02 00:36:03;;;;;;;0.20;0.20;;;8.50;84.50;;;;;;5137137;28;20070;-74
2024/03/02 00:38:30;;;;;;;0.20;0.20;;;8.50;84.50;;;;;;5136187;28;20043;-74
2024/03/02 00:40:59;;;;;;;0.35;0.35;;;8.40;84.40;;;;;;5117011;28;20050;-74
2024/03/02 00:43:43;;;;;;;0.20;0.20;;;8.50;84.50;;;;;;5116281;28;20487;-75
2024/03/02 00:46:12;;;;;;;0.30;0.30;;;8.50;84.50;;;;;;5134571;28;20038;-74
2024/03/02 00:48:44;;;;;;;0.20;0.20;;;8.50;84.50;;;;;;5119064;28;20486;-74
2024/03/02 00:51:10;;;;;;;0.30;0.30;;;8.50;84.50;;;;;;5118373;28;20106;-74
2024/03/02 00:53:36;;;;;;;0.35;0.32;;;8.50;84.50;;;;;;5099019;28;20461;-74
2024/03/02 00:56:02;;;;;;;0.40;0.40;;;8.50;84.50;;;;;;5136796;28;20439;-74
2024/03/02 00:58:28;;;;;;;0.25;0.20;;;8.50;84.60;;;;;;5135416;28;20058;-74
2024/03/02 01:00:53;;;;;;;0.20;0.20;;;8.50;84.60;;;;;;5134867;27;20043;-75
2024/03/02 01:03:19;;;;;;;0.20;0.20;;;8.50;84.60;;;;;;5117457;28;20088;-75
2024/03/02 01:05:45;;;;;;;0.65;0.20;;;8.50;85.20;;;;;;5117069;28;20127;-75
2024/03/02 01:08:11;;;;;;;0.30;0.30;;;8.50;84.60;;;;;;5118742;28;20035;-74
2024/03/02 01:10:37;;;;;;;0.20;0.20;;;8.50;84.60;;;;;;5118331;28;20490;-74
2024/03/02 01:13:03;;;;;;;0.82;0.20;;;8.60;84.60;;;;;;5135674;28;20191;-74
2024/03/02 01:15:29;;;;;;;0.25;0.20;;;8.50;84.60;;;;;;5117277;28;20127;-74
2024/03/02 01:17:54;;;;;;;0.50;0.30;;;8.50;84.60;;;;;;5115890;28;20046;-74
2024/03/02 01:20:21;;;;;;;0.20;0.20;;;8.50;84.60;;;;;;5134418;28;20071;-74
2024/03/02 01:22:47;;;;;;;0.70;0.40;;;8.60;84.60;;;;;;5099276;28;20035;-74
2024/03/02 01:25:13;;;;;;;0.20;0.20;;;8.60;84.60;;;;;;5134295;28;20043;-74
2024/03/02 01:27:39;;;;;;;0.82;0.30;;;8.60;84.60;;;;;;5115965;28;20092;-74
2024/03/02 01:30:06;;;;;;;0.20;0.20;;;8.60;84.60;;;;;;5133897;28;20047;-74
2024/03/02 01:32:31;;;;;;;0.20;0.20;;;8.60;84.40;;;;;;5116453;28;20031;-74
2024/03/02 01:34:57;;;;;;;0.30;0.30;;;8.60;84.40;;;;;;5097645;28;20527;-74
2024/03/02 01:37:23;;;;;;;0.30;0.30;;;8.60;84.30;;;;;;5134000;28;20043;-74
2024/03/02 01:39:48;;;;;;;0.20;0.20;;;8.60;84.30;;;;;;5115989;28;20516;-74
2024/03/02 01:42:14;;;;;;;0.30;0.30;;;8.70;84.40;;;;;;5134144;28;20070;-74
2024/03/02 01:44:40;;;;;;;0.20;0.20;;;8.70;84.40;;;;;;5115558;28;20046;-74
2024/03/02 01:47:06;;;;;;;0.20;0.20;;;8.70;84.40;;;;;;5133515;28;20047;-74
2024/03/02 01:49:34;;;;;;;0.20;0.20;;;8.60;84.40;;;;;;5098185;28;20048;-74
2024/03/02 01:51:59;;;;;;;0.10;0.10;;;8.60;84.40;;;;;;5134678;28;20049;-74
2024/03/02 01:54:25;;;;;;;0.10;0.10;;;8.60;84.50;;;;;;5099671;28;20134;-74
2024/03/02 01:56:51;;;;;;;0.10;0.10;;;8.70;84.70;;;;;;5134922;28;20093;-74
2024/03/02 01:59:17;;;;;;;0.22;0.22;;;8.60;84.80;;;;;;5134142;28;20494;-74
2024/03/02 02:01:42;;;;;;;0.32;0.20;;;8.60;84.90;;;;;;5134513;28;20050;-74
2024/03/02 02:04:08;;;;;;;0.30;0.20;;;8.60;84.90;;;;;;5133974;28;20479;-74
2024/03/02 02:06:34;;;;;;;0.10;0.10;;;8.60;85.00;;;;;;5133901;28;20067;-74
2024/03/02 02:09:00;;;;;;;0.10;0.10;;;8.60;85.10;;;;;;5115326;28;20096;-74
2024/03/02 02:11:26;;;;;;;0.10;0.10;;;8.50;85.10;;;;;;5115306;28;20031;-74
2024/03/02 02:13:51;;;;;;;0.20;0.20;;;8.50;85.20;;;;;;5115200;28;20517;-74
2024/03/02 02:16:17;;;;;;;0.13;0.13;;;8.50;85.30;;;;;;5113827;28;20115;-74
2024/03/02 02:18:43;;;;;;;0.10;0.10;;;8.50;85.40;;;;;;5133719;28;20538;-74
2024/03/02 02:21:08;;;;;;;0.10;0.10;;;8.50;85.40;;;;;;5133179;28;20138;-74
2024/03/02 02:23:34;;;;;;;0.10;0.10;;;8.50;85.50;;;;;;5134211;28;20126;-74
2024/03/02 02:26:02;;;;;;;0.10;0.10;;;8.40;85.50;;;;;;5133232;28;20039;-74
2024/03/02 02:28:28;;;;;;;0.10;0.10;;;8.40;85.50;;;;;;5115254;28;20444;-75
2024/03/02 02:30:56;;;;;;;0.10;0.10;;;8.40;85.60;;;;;;5114616;28;20043;-74
2024/03/02 02:33:22;;;;;;;0.10;0.10;;;8.40;85.60;;;;;;5114609;28;20054;-74
2024/03/02 02:35:47;;;;;;;0.10;0.10;;;8.40;85.70;;;;;;5132918;28;20039;-74
2024/03/02 02:38:13;;;;;;;0.10;0.10;;;8.40;85.80;;;;;;5133011;28;20042;-75
2024/03/02 02:40:38;;;;;;;0.10;0.10;;;8.40;85.80;;;;;;5114930;28;20450;-75
2024/03/02 02:43:04;;;;;;;0.28;0.10;;;8.40;85.90;;;;;;5134973;28;20381;-74
2024/03/02 02:45:30;;;;;;;0.10;0.10;;;8.30;85.80;;;;;;5114936;28;20039;-74
2024/03/02 02:47:56;;;;;;;0.10;0.10;;;8.40;86.00;;;;;;5114663;28;20127;-75
2024/03/02 02:50:22;;;;;;;0.28;0.17;;;8.30;85.90;;;;;;5133306;28;20050;-74
2024/03/02 02:52:47;;;;;;;0.13;0.10;;;8.30;85.90;;;;;;5133316;28;20036;-74
2024/03/02 02:55:15;;;;;;;0.10;0.10;;;8.30;86.00;;;;;;5114508;28;20046;-75
2024/03/02 02:57:42;;;;;;;0.10;0.10;;;8.30;86.00;;;;;;5133530;28;20043;-74
2024/03/02 03:00:14;;;;;;;0.10;0.10;;;8.30;86.10;;;;;;5133237;28;20043;-74
2024/03/02 03:02:41;;;;;;;0.10;0.10;;;8.30;86.10;;;;;;5097918;28;20034;-74
2024/03/02 03:05:08;;;;;;;0.10;0.10;;;8.30;86.10;;;;;;5114492;28;20047;-74
2024/03/02 03:07:34;;;;;;;0.10;0.10;;;8.30;86.00;;;;;;5112622;28;20036;-74
2024/03/02 03:10:01;;;;;;;0.15;0.15;;;8.30;86.00;;;;;;5113937;28;20067;-74
2024/03/02 03:12:26;;;;;;;0.10;0.10;;;8.30;85.90;;;;;;5114645;28;20042;-74
2024/03/02 03:14:52;;;;;;;0.20;0.20;;;8.30;85.90;;;;;;5132344;28;20032;-74
2024/03/02 03:17:17;;;;;;;0.10;0.10;;;8.30;86.50;;;;;;5096979;28;20043;-74
2024/03/02 03:19:43;;;;;;;0.10;0.10;;;8.30;85.80;;;;;;5113079;28;20043;-74
2024/03/02 03:22:09;;;;;;;0.22;0.13;;;8.30;85.80;;;;;;5097324;28;20449;-74
2024/03/02 03:24:35;;;;;;;0.10;0.10;;;8.20;85.80;;;;;;5135548;28;20092;-74
2024/03/02 03:27:01;;;;;;;0.15;0.15;;;8.20;85.90;;;;;;5117381;28;20126;-74
2024/03/02 03:29:26;;;;;;;0.10;0.10;;;8.20;86.00;;;;;;5100125;28;20434;-74
2024/03/02 03:31:52;;;;;;;0.10;0.10;;;8.20;86.10;;;;;;5117421;28;20530;-74
2024/03/02 03:34:18;;;;;;;0.10;0.10;;;8.20;86.10;;;;;;5135288;28;20038;-74
2024/03/02 03:36:43;;;;;;;0.10;0.10;;;8.10;86.10;;;;;;5135386;28;20043;-74
2024/03/02 03:39:09;;;;;;;0.13;0.10;;;8.10;86.10;;;;;;5135690;28;20039;-74
2024/03/02 03:41:35;;;;;;;0.10;0.10;;;8.10;86.20;;;;;;5117489;28;20046;-74
2024/03/02 03:44:01;;;;;;;0.80;0.10;;;8.00;86.20;;;;;;5116911;28;20575;-74
2024/03/02 03:46:27;;;;;;;0.10;0.10;;;8.10;86.30;;;;;;5135789;28;20042;-74
2024/03/02 03:48:52;;;;;;;0.10;0.10;;;8.10;86.30;;;;;;5116732;28;20042;-74
2024/03/02 03:51:18;;;;;;;0.10;0.10;;;8.10;86.40;;;;;;5099753;28;20406;-74
2024/03/02 03:53:43;;;;;;;0.10;0.10;;;8.00;86.40;;;;;;5135019;28;20185;-74
2024/03/02 03:56:09;;;;;;;0.10;0.10;;;8.00;86.50;;;;;;5115019;28;20061;-74
2024/03/02 03:58:35;;;;;;;0.15;0.15;;;8.00;86.50;;;;;;5099508;28;20039;-74
2024/03/02 04:01:00;;;;;;;0.10;0.10;;;8.00;86.60;;;;;;5134845;28;20482;-74
2024/03/02 04:03:26;;;;;;;0.20;0.20;;;7.90;86.60;;;;;;5116793;28;20035;-74
2024/03/02 04:05:52;;;;;;;0.10;0.10;;;7.90;86.60;;;;;;5135142;28;20042;-74
2024/03/02 04:08:18;;;;;;;0.10;0.10;;;7.90;86.70;;;;;;5135078;28;20039;-74
2024/03/02 04:10:43;;;;;;;0.10;0.10;;;7.90;86.70;;;;;;5135034;28;20043;-74
2024/03/02 04:13:09;;;;;;;0.10;0.10;;;7.90;86.70;;;;;;5114319;28;20047;-74
2024/03/02 04:15:35;;;;;;;0.20;0.20;;;7.90;86.70;;;;;;5099651;28;20058;-75
2024/03/02 04:18:00;;;;;;;0.10;0.10;;;7.90;86.70;;;;;;5099386;28;20148;-74
2024/03/02 04:20:26;;;;;;;0.10;0.10;;;7.80;86.70;;;;;;5134572;28;20078;-74
2024/03/02 04:22:52;;;;;;;0.10;0.10;;;7.90;86.80;;;;;;5099511;28;20049;-74
2024/03/02 04:25:17;;;;;;;0.10;0.10;;;7.80;86.70;;;;;;5099261;28;20397;-75
2024/03/02 04:27:43;;;;;;;0.35;0.20;;;7.80;86.70;;;;;;5134551;28;20039;-74
2024/03/02 04:30:09;;;;;;;0.10;0.10;;;7.90;86.90;;;;;;5135985;28;20444;-74
2024/03/02 04:32:36;;;;;;;0.10;0.10;;;7.80;86.90;;;;;;5135862;28;20478;-74
2024/03/02 04:35:01;;;;;;;0.10;0.10;;;7.80;87.50;;;;;;5116300;28;20505;-74
2024/03/02 04:37:27;;;;;;;0.20;0.10;;;7.80;87.00;;;;;;5116075;28;20126;-74
2024/03/02 04:39:53;;;;;;;0.10;0.10;;;7.80;87.00;;;;;;5115536;28;20075;-74
2024/03/02 04:42:19;;;;;;;0.10;0.10;;;7.80;87.00;;;;;;5134600;28;20412;-74
2024/03/02 04:44:45;;;;;;;0.10;0.10;;;7.70;87.10;;;;;;5134865;28;20039;-74
2024/03/02 04:47:10;;;;;;;0.10;0.10;;;7.70;87.10;;;;;;5116476;28;20087;-74
2024/03/02 04:49:36;;;;;;;0.10;0.10;;;7.70;87.30;;;;;;5134941;28;20043;-74
2024/03/02 04:52:02;;;;;;;0.10;0.10;;;7.60;87.30;;;;;;5114964;28;20052;-74
2024/03/02 04:54:28;;;;;;;0.10;0.10;;;7.60;87.50;;;;;;5116497;28;20042;-74
2024/03/02 04:56:53;;;;;;;0.10;0.10;;;7.60;87.60;;;;;;5135162;28;20054;-74
2024/03/02 04:59:19;;;;;;;0.10;0.10;;;7.50;87.70;;;;;;5099512;28;20054;-75
2024/03/02 05:01:45;;;;;;;0.10;0.10;;;7.50;87.80;;;;;;5097482;28;20040;-74
2024/03/02 05:04:11;;;;;;;0.10;0.10;;;7.40;87.90;;;;;;5134482;28;20048;-74
2024/03/02 05:06:39;;;;;;;0.20;0.20;;;7.40;88.00;;;;;;5099032;28;20043;-74
2024/03/02 05:09:05;;;;;;;0.10;0.10;;;7.40;88.00;;;;;;5116096;28;20461;-74
2024/03/02 05:14:16;;;;;;;0.10;0.10;;;7.40;87.90;;;;;;5104632;28;20043;-74
2024/03/02 05:16:42;;;;;;;0.10;0.10;;;7.30;87.90;;;;;;5134788;28;20035;-74
2024/03/02 05:19:08;;;;;;;0.10;0.10;;;7.30;87.90;;;;;;5099158;28;20506;-74
2024/03/02 05:21:34;;;;;;;0.10;0.10;;;7.30;87.90;;;;;;5116538;28;20077;-74
2024/03/02 05:24:00;;;;;;;0.10;0.10;;;7.20;87.90;;;;;;5115696;28;20099;-74
2024/03/02 05:26:26;;;;;;;0.10;0.10;;;7.30;88.10;;;;;;5134378;28;20035;-74
2024/03/02 05:28:53;;;;;;;0.10;0.10;;;7.30;88.00;;;;;;5134094;28;20467;-75
2024/03/02 05:31:18;;;;;;;0.10;0.10;;;7.30;88.00;;;;;;5115668;28;20386;-74
2024/03/02 05:33:44;;;;;;;0.30;0.10;;;7.20;87.90;;;;;;5134510;28;20047;-74
2024/03/02 05:36:10;;;;;;;0.10;0.10;;;7.20;87.90;;;;;;5134224;28;20057;-74
2024/03/02 05:38:36;;;;;;;0.20;0.17;;;7.20;87.90;;;;;;5134320;28;20035;-74
2024/03/02 05:41:02;;;;;;;0.30;0.22;;;7.20;87.90;;;;;;5081452;28;20083;-74
2024/03/02 05:43:28;;;;;;;0.13;0.13;;;7.20;87.90;;;;;;5133856;28;20122;-74
2024/03/02 05:45:54;;;;;;;0.10;0.10;;;7.10;87.80;;;;;;5096204;28;20132;-75
2024/03/02 05:48:20;;;;;;;0.10;0.10;;;7.20;87.90;;;;;;5133587;28;20125;-74
2024/03/02 05:50:45;;;;;;;0.10;0.10;;;7.10;87.90;;;;;;5134172;28;20066;-74
2024/03/02 05:53:11;;;;;;;0.10;0.10;;;7.10;88.00;;;;;;5115697;28;20039;-74
2024/03/02 05:55:37;;;;;;;0.15;0.10;;;7.10;88.10;;;;;;5133781;28;20035;-74
2024/03/02 06:00:48;;;;;;;0.10;0.10;;;7.00;88.10;;;;;;5103811;28;20092;-74
2024/03/02 06:03:14;;;;;;;0.10;0.10;;;7.00;88.20;;;;;;5133431;28;20031;-74
2024/03/02 06:05:40;;;;;;;0.43;0.20;;;7.10;88.20;;;;;;5113880;28;20122;-74
2024/03/02 06:08:07;;;;;;;0.13;0.13;;;7.00;88.10;;;;;;5115618;28;20131;-74
2024/03/02 06:10:33;;;;;;;0.20;0.20;;;7.00;88.10;;;;;;5115297;28;20396;-74
2024/03/02 06:12:59;;;;;;;0.10;0.10;;;6.90;88.10;;;;;;5115880;28;20047;-74
2024/03/02 06:15:24;;;;;;;0.10;0.10;;;6.90;88.20;;;;;;5115369;28;20039;-74
2024/03/02 06:17:50;;;;;;;0.10;0.10;;;6.90;88.20;;;;;;5114955;28;20035;-74
2024/03/02 06:20:16;;;;;;;0.10;0.10;;;6.90;88.20;;;;;;5115208;28;20039;-74
2024/03/02 06:22:41;;;;;;;0.10;0.10;;;6.80;88.30;;;;;;5133247;28;20050;-74
2024/03/02 06:25:07;;;;;;;0.10;0.10;;;6.80;88.30;;;;;;5133363;28;20177;-74
2024/03/02 06:27:33;;;;;;;0.95;0.10;;;6.80;88.40;;;;;;5133840;28;20423;-74
2024/03/02 06:29:58;;;;;;;0.10;0.10;;;6.70;88.40;;;;;;5133150;28;20116;-74
2024/03/02 06:32:25;;;;;;;0.10;0.10;;;6.70;88.50;;;;;;5097881;28;20070;-74
2024/03/02 06:34:50;;;;;;;0.10;0.10;;;6.70;88.70;;;;;;5133124;28;20039;-74
2024/03/02 06:37:16;;;;;;;0.10;0.10;;;6.70;88.80;;;;;;5133309;28;20088;-74
2024/03/02 06:39:42;;;;;;;0.10;0.10;;;6.70;88.80;;;;;;5115028;28;20035;-74
2024/03/02 06:42:07;;;;;;;0.10;0.10;;;6.70;88.80;;;;;;5133180;28;20088;-74
2024/03/02 06:44:34;;;;;;;0.10;0.10;;;6.70;88.80;;;;;;5115937;28;20035;-74
2024/03/02 06:47:00;;;;;;;0.10;0.10;;;6.70;88.70;;;;;;5136177;28;20035;-74
2024/03/02 06:49:26;;;;;;;0.10;0.10;;;6.70;88.50;;;;;;5117518;28;20043;-74
2024/03/02 06:51:51;;;;;;;0.10;0.10;;;6.80;88.40;;;;;;5135098;28;20031;-74
2024/03/02 06:54:17;;;;;;;0.32;0.10;;;6.80;88.30;;;;;;5098711;28;20039;-74
2024/03/02 06:56:42;;;;;;;0.10;0.10;;;6.80;88.20;;;;;;5098009;28;20043;-74
2024/03/02 06:59:08;;;;;;;0.10;0.10;;;6.90;88.10;;;;;;5118590;28;20066;-74
2024/03/02 07:01:34;;;;;;;0.03;0.03;;;7.00;88.10;;;;;;5138584;28;20418;-74
2024/03/02 07:04:00;;;;;;;0.10;0.10;;;7.10;88.00;;;;;;5138347;28;20063;-74
2024/03/02 07:06:25;;;;;;;0.10;0.10;;;7.10;87.80;;;;;;5119247;28;20103;-74
2024/03/02 07:08:51;;;;;;;0.22;0.10;;;7.10;87.70;;;;;;5119701;28;20760;-74
2024/03/02 07:11:17;;;;;;;0.10;0.10;;;7.10;87.70;;;;;;5137730;28;20061;-74
2024/03/02 07:13:42;;;;;;;0.20;0.20;;;7.10;88.40;;;;;;5137605;28;20035;-74
2024/03/02 07:18:51;;;;;;;0.25;0.10;;;7.00;87.80;;;;;;5137225;28;20043;-74
2024/03/02 07:21:18;;;;;;;0.10;0.10;;;7.00;87.70;;;;;;5119205;28;20035;-74
2024/03/02 07:23:44;;;;;;;0.10;0.10;;;7.10;87.90;;;;;;5117301;28;20090;-74
2024/03/02 07:26:10;;;;;;;0.10;0.10;;;7.00;87.90;;;;;;5118436;28;20482;-74
2024/03/02 07:28:36;;;;;;;0.10;0.10;;;7.00;88.00;;;;;;5117419;28;20058;-74
2024/03/02 07:31:04;;;;;;;0.20;0.10;;;7.10;88.00;;;;;;5136606;28;20043;-74
2024/03/02 07:33:30;;;;;;;0.15;0.10;;;7.10;87.90;;;;;;5120512;28;20039;-74
2024/03/02 07:35:56;;;;;;;0.63;0.20;;;7.20;87.80;;;;;;5119575;28;20035;-74
2024/03/02 07:38:22;;;;;;;0.40;0.20;;;7.20;87.70;;;;;;5137618;28;20081;-74
2024/03/02 07:40:50;;;;;;;0.15;0.15;;;7.30;87.60;;;;;;5138268;28;20043;-74
2024/03/02 07:43:19;;;;;;;0.20;0.20;;;7.30;87.50;;;;;;5138234;28;20039;-74
2024/03/02 07:45:45;;;;;;;0.10;0.10;;;7.40;87.40;;;;;;5100149;28;20555;-74
2024/03/02 07:48:11;;;;;;;0.10;0.10;;;7.40;87.30;;;;;;5119230;28;20112;-74
2024/03/02 07:50:37;;;;;;;0.22;0.20;;;7.50;87.20;;;;;;5118509;28;20047;-74
2024/03/02 07:53:10;;;;;;;0.40;0.20;;;7.60;87.20;;;;;;5118830;28;20133;-74
2024/03/02 07:55:36;;;;;;;0.10;0.10;;;7.70;87.10;;;;;;5138516;28;20386;-74
2024/03/02 07:58:02;;;;;;;0.15;0.10;;;7.80;87.30;;;;;;5138013;28;20046;-74
2024/03/02 08:00:28;;;;;;;0.10;0.10;;;7.80;87.40;;;;;;5103303;28;20055;-74
2024/03/02 08:02:54;;;;;;;0.65;0.10;;;8.00;86.70;;;;;;5138986;28;20036;-74
2024/03/02 08:05:20;;;;;;;0.10;0.10;;;8.10;86.60;;;;;;5138472;28;20035;-74
2024/03/02 08:07:46;;;;;;;0.20;0.20;;;8.10;86.30;;;;;;5138155;28;20038;-74
2024/03/02 08:10:12;;;;;;;0.10;0.10;;;8.30;86.20;;;;;;5134676;27;20035;-74
2024/03/02 08:12:38;;;;;;;0.60;0.20;;;8.40;86.00;;;;;;5135326;28;20035;-75
2024/03/02 08:15:04;;;;;;;0.10;0.10;;;8.50;85.80;;;;;;5117624;28;20046;-74
2024/03/02 08:17:30;;;;;;;0.63;0.10;;;8.70;85.70;;;;;;5118876;28;20085;-75
2024/03/02 08:19:57;;;;;;;0.30;0.10;;;8.80;85.60;;;;;;5137813;28;20478;-75
2024/03/02 08:22:25;;;;;;;0.20;0.20;;;8.90;86.00;;;;;;5118713;28;20131;-75
2024/03/02 08:24:51;;;;;;;0.15;0.15;;;9.00;85.30;;;;;;5117303;28;20046;-73
2024/03/02 08:27:17;;;;;;;0.10;0.10;;;9.10;85.20;;;;;;5117124;28;20027;-75
2024/03/02 08:29:43;;;;;;;0.17;0.17;;;9.20;85.10;;;;;;5100770;28;20406;-73
2024/03/02 08:32:09;;;;;;;0.20;0.20;;;9.30;85.10;;;;;;5098000;28;20036;-74
2024/03/02 08:34:35;;;;;;;0.20;0.20;;;9.40;85.10;;;;;;5136096;28;20096;-73
2024/03/02 08:37:02;;;;;;;0.10;0.10;;;9.40;85.40;;;;;;5082960;28;20042;-74
2024/03/02 08:39:28;;;;;;;0.93;0.20;;;9.40;84.80;;;;;;5117658;28;20039;-73
2024/03/02 08:41:54;;;;;;;0.20;0.20;;;9.50;84.80;;;;;;5134906;28;20043;-74
2024/03/02 08:44:20;;;;;;;0.40;0.20;;;9.50;85.00;;;;;;5135911;28;20043;-75
2024/03/02 08:46:46;;;;;;;0.10;0.10;;;9.50;84.80;;;;;;5121652;28;20061;-75
2024/03/02 08:49:12;;;;;;;0.20;0.20;;;9.50;84.90;;;;;;5143507;28;20035;-75
2024/03/02 08:51:38;;;;;;;0.20;0.20;;;9.60;84.80;;;;;;5136973;28;20504;-75
2024/03/02 08:54:04;;;;;;;0.98;0.20;;;9.60;84.60;;;;;;5099882;28;20126;-74
2024/03/02 08:56:31;;;;;;;0.20;0.20;;;9.60;84.70;;;;;;5134248;28;20490;-74
2024/03/02 08:58:56;;;;;;;0.77;0.20;;;9.70;84.80;;;;;;5114535;28;20491;-73
2024/03/02 09:01:22;;;;;;;0.20;0.20;;;9.70;84.60;;;;;;5115699;28;20130;-74
2024/03/02 09:03:49;;;;;;;0.22;0.20;;;9.70;84.50;;;;;;5098915;28;20053;-74
2024/03/02 09:06:20;;;;;;;1.20;0.43;;;9.70;84.60;;;;;;5115607;28;20505;-74
2024/03/02 09:08:45;;;;;;;0.40;0.27;;;9.70;84.60;;;;;;5115011;28;20043;-74
2024/03/02 09:11:11;;;;;;;0.52;0.20;;;9.80;84.50;;;;;;5115618;28;20070;-74
2024/03/02 09:13:38;;;;;;;0.20;0.20;;;9.70;84.40;;;;;;5134142;28;20039;-74
2024/03/02 09:16:05;;;;;;;0.40;0.20;;;9.80;84.50;;;;;;5135910;28;20043;-75
2024/03/02 09:18:30;;;;;;;0.68;0.25;;;9.90;84.50;;;;;;5137830;28;20121;-76
2024/03/02 09:20:56;;;;;;;0.57;0.32;;;9.90;84.30;;;;;;5109832;28;20413;-75
2024/03/02 09:23:22;;;;;;;0.77;0.30;;;10.00;84.30;;;;;;5138835;28;20042;-75
2024/03/02 09:25:48;;;;;;;0.30;0.30;;;10.00;84.30;;;;;;5118843;28;20038;-75
2024/03/02 09:28:15;;;;;;;0.38;0.38;;;10.00;84.30;;;;;;5115397;28;20047;-76
2024/03/02 09:30:41;;;;;;;1.33;0.30;;;10.00;84.10;;;;;;5134398;28;20042;-76
2024/03/02 09:33:07;;;;;;;0.52;0.20;;;10.00;84.10;;;;;;5114867;28;20047;-75
2024/03/02 09:35:32;;;;;;;1.63;0.30;;;10.10;84.20;;;;;;5102079;28;20110;-75
2024/03/02 09:37:58;;;;;;;0.20;0.20;;;10.00;84.00;;;;;;5126125;28;20039;-75
2024/03/02 09:40:24;;;;;;;0.20;0.20;;;10.00;83.90;;;;;;5138588;28;20039;-73
2024/03/02 09:42:52;;;;;;;0.17;0.17;;;10.00;83.90;;;;;;5121078;28;20031;-72
2024/03/02 09:45:23;;;;;;;0.45;0.30;;;10.00;84.00;;;;;;5134686;28;20084;-74
2024/03/02 09:47:49;;;;;;;0.45;0.28;;;10.00;84.00;;;;;;5115352;28;20439;-74
2024/03/02 09:50:15;;;;;;;0.68;0.30;;;10.20;84.10;;;;;;5115246;28;20035;-73
2024/03/02 09:52:43;;;;;;;0.30;0.30;;;10.10;83.90;;;;;;5098801;28;20081;-73
2024/03/02 09:55:09;;;;;;;0.20;0.20;;;10.10;83.90;;;;;;5115182;28;20075;-74
2024/03/02 09:57:35;;;;;;;0.63;0.30;;;10.10;83.90;;;;;;5082350;28;20078;-75
2024/03/02 10:00:01;;;;;;;0.22;0.22;;;10.10;83.80;;;;;;5114793;28;20054;-72
2024/03/02 10:02:26;;;;;;;0.40;0.30;;;10.10;83.70;;;;;;5115409;28;20035;-73
2024/03/02 10:04:52;;;;;;;0.20;0.20;;;10.10;83.80;;;;;;5133762;28;20489;-72
2024/03/02 10:07:19;;;;;;;0.55;0.30;;;10.10;83.80;;;;;;5114818;28;20406;-73
2024/03/02 10:09:46;;;;;;;0.55;0.40;;;10.20;83.70;;;;;;5115255;28;20137;-73
2024/03/02 10:12:14;;;;;;;0.20;0.20;;;10.30;83.60;;;;;;5097747;28;20034;-73
2024/03/02 10:14:40;;;;;;;0.85;0.32;;;10.30;83.40;;;;;;5133101;28;20051;-74
2024/03/02 10:17:09;;;;;;;0.10;0.10;;;10.40;83.30;;;;;;5133037;28;20043;-73
2024/03/02 10:19:36;;;;;;;0.20;0.20;;;10.40;83.20;;;;;;5113263;28;20503;-74
2024/03/02 10:22:05;;;;;;;0.75;0.20;;;10.40;83.10;;;;;;5097767;28;20042;-74
2024/03/02 10:24:44;;;;;;;0.30;0.28;;;10.40;83.10;;;;;;5097559;28;20092;-72
2024/03/02 10:27:16;;;;;;;0.30;0.20;;;10.40;83.00;;;;;;5114683;28;20063;-73
2024/03/02 10:29:45;;;;;;;0.50;0.20;;;10.50;82.90;;;;;;5132714;28;20035;-73
2024/03/02 10:32:11;;;;;;;0.65;0.30;;;10.50;82.90;;;;;;5134313;27;20082;-73
2024/03/02 10:34:40;;;;;;;0.20;0.20;;;10.50;82.80;;;;;;5118853;28;20039;-73
2024/03/02 10:37:08;;;;;;;0.20;0.20;;;10.60;82.80;;;;;;5137308;28;20047;-73
2024/03/02 10:39:35;;;;;;;1.52;0.28;;;10.60;82.60;;;;;;5117851;28;20091;-73
2024/03/02 10:42:04;;;;;;;0.20;0.20;;;10.60;82.40;;;;;;5137521;28;20130;-74
2024/03/02 10:44:31;;;;;;;0.50;0.20;;;10.60;82.30;;;;;;5119264;28;20046;-73
2024/03/02 10:47:00;;;;;;;0.22;0.20;;;10.70;82.30;;;;;;5118068;28;20039;-72
2024/03/02 10:49:27;;;;;;;0.43;0.20;;;10.80;82.30;;;;;;5118279;28;20035;-73
2024/03/02 10:51:53;;;;;;;0.20;0.20;;;10.90;82.20;;;;;;5136321;28;20117;-73
2024/03/02 10:54:25;;;;;;;0.25;0.25;;;10.90;82.10;;;;;;5117852;28;20074;-73
2024/03/02 10:56:52;;;;;;;0.20;0.20;;;11.00;81.90;;;;;;5101683;28;20027;-73
2024/03/02 10:59:36;;;;;;;0.45;0.20;;;11.10;81.80;;;;;;5137643;28;20158;-74
2024/03/02 11:02:04;;;;;;;0.15;0.15;;;11.10;81.50;;;;;;5103572;28;20031;-75
2024/03/02 11:04:31;;;;;;;0.13;0.10;;;11.20;81.50;;;;;;5118239;28;20051;-74
2024/03/02 11:07:09;;;;;;;0.20;0.20;;;11.30;81.50;;;;;;5100982;28;20087;-72
2024/03/02 11:09:43;;;;;;;0.10;0.10;;;11.30;81.30;;;;;;5136209;28;20055;-72
2024/03/02 11:12:14;;;;;;;0.25;0.25;;;11.30;81.20;;;;;;5118548;28;20043;-72
2024/03/02 11:14:43;;;;;;;0.45;0.30;;;11.40;81.10;;;;;;5133400;28;20181;-72
2024/03/02 11:17:10;;;;;;;0.50;0.22;;;11.50;81.00;;;;;;5117580;28;20042;-73
2024/03/02 11:19:38;;;;;;;0.10;0.10;;;11.60;80.90;;;;;;5136038;28;20058;-73
2024/03/02 11:22:04;;;;;;;0.20;0.20;;;11.60;80.70;;;;;;5135631;28;20043;-73
2024/03/02 11:24:34;;;;;;;0.20;0.20;;;11.60;80.60;;;;;;5117507;28;20039;-73
2024/03/02 11:27:05;;;;;;;0.10;0.10;;;11.70;80.70;;;;;;5135348;28;20046;-73
2024/03/02 11:29:47;;;;;;;0.10;0.10;;;11.70;80.60;;;;;;5118069;28;20067;-73
2024/03/02 11:32:16;;;;;;;0.22;0.20;;;11.80;80.50;;;;;;5135969;28;20050;-73
2024/03/02 11:34:45;;;;;;;0.47;0.20;;;11.90;80.50;;;;;;5117800;28;20062;-73
2024/03/02 11:37:12;;;;;;;0.10;0.10;;;11.90;80.20;;;;;;5099951;28;20494;-72
2024/03/02 11:39:39;;;;;;;0.22;0.20;;;11.90;80.30;;;;;;5117376;28;20035;-72
2024/03/02 11:42:09;;;;;;;0.17;0.17;;;11.90;80.20;;;;;;5116930;28;20063;-72
2024/03/02 11:44:35;;;;;;;0.10;0.10;;;12.00;80.10;;;;;;5115672;28;20069;-73
2024/03/02 11:47:02;;;;;;;0.20;0.20;;;12.00;80.00;;;;;;5116845;28;20046;-72
2024/03/02 11:49:51;;;;;;;0.43;0.20;;;12.10;80.00;;;;;;5135469;28;20062;-73
2024/03/02 11:52:18;;;;;;;0.17;0.10;;;12.10;79.80;;;;;;5116808;28;20098;-73
2024/03/02 11:54:46;;;;;;;0.98;0.10;;;12.20;79.90;;;;;;5117001;28;20035;-73
2024/03/02 11:57:15;;;;;;;0.10;0.10;;;12.30;79.80;;;;;;5135859;28;20047;-73
2024/03/02 11:59:40;;;;;;;0.30;0.20;;;12.30;79.60;;;;;;5117172;28;20070;-72
2024/03/02 12:02:06;;;;;;;0.55;0.30;;;12.30;79.50;;;;;;5135156;28;20039;-72
2024/03/02 12:04:32;;;;;;;0.20;0.20;;;12.30;79.30;;;;;;5134924;28;20335;-73
2024/03/02 12:07:00;;;;;;;0.30;0.20;;;12.50;79.30;;;;;;5116649;28;20035;-73
2024/03/02 12:09:28;;;;;;;0.40;0.20;;;12.60;79.00;;;;;;5099557;28;20069;-73
2024/03/02 12:12:09;;;;;;;0.55;0.30;;;12.70;78.70;;;;;;5135810;28;20524;-73
2024/03/02 12:14:36;;;;;;;;;;;12.80;78.30;;;;;;5098203;28;20105;-74
2024/03/02 12:17:03;;;;;;;0.73;0.20;;;12.90;78.40;;;;;;5117513;28;19935;-73
2024/03/02 12:19:30;;;;;;;0.30;0.30;;;13.00;78.20;;;;;;5098478;28;20043;-72
2024/03/02 12:21:57;;;;;;;0.75;0.20;;;13.00;78.10;;;;;;5119509;28;20039;-73
2024/03/02 12:24:24;;;;;;;0.25;0.20;;;13.00;77.90;;;;;;5110498;28;20055;-74
2024/03/02 12:26:51;;;;;;;0.10;0.10;;;13.20;77.90;;;;;;5125317;28;20036;-75
2024/03/02 12:29:19;;;;;;;0.63;0.20;;;13.20;77.50;;;;;;5148841;28;20039;-74
2024/03/02 12:31:47;;;;;;;0.40;0.20;;;13.30;77.30;;;;;;5115611;28;20092;-74
2024/03/02 12:34:16;;;;;;;0.20;0.20;;;13.30;77.10;;;;;;5149790;28;20035;-74
2024/03/02 12:36:41;;;;;;;0.95;0.30;;;13.30;77.00;;;;;;5131861;28;20503;-74
2024/03/02 12:39:10;;;;;;;0.30;0.20;;;13.30;77.00;;;;;;5133014;28;20035;-74
2024/03/02 12:41:37;;;;;;;0.30;0.22;;;13.40;77.20;;;;;;5131269;28;20102;-74
2024/03/02 12:44:05;;;;;;;0.30;0.20;;;13.40;77.20;;;;;;5133214;28;20123;-75
2024/03/02 12:46:32;;;;;;;0.25;0.25;;;13.50;77.00;;;;;;5127394;28;20042;-75
2024/03/02 12:48:59;;;;;;;0.60;0.20;;;13.40;77.00;;;;;;5147147;28;20039;-74
2024/03/02 12:51:25;;;;;;;0.20;0.20;;;13.40;77.10;;;;;;5147473;28;20062;-75
2024/03/02 12:53:55;;;;;;;0.55;0.30;;;13.50;77.00;;;;;;5132686;28;20111;-75
2024/03/02 12:56:21;;;;;;;0.20;0.20;;;13.60;77.00;;;;;;5134248;28;20054;-75
2024/03/02 12:58:46;;;;;;;0.35;0.20;;;13.60;76.70;;;;;;5114261;28;20043;-74
2024/03/02 13:01:15;;;;;;;0.20;0.20;;;13.70;76.50;;;;;;5150911;28;20059;-75